地図

経路データ

SID SEASON NUMBER BASIN SUBBASIN NAME ISO_TIME NATURE LAT LON WMO_WIND WMO_PRES WMO_AGENCY TRACK_TYPE DIST2LAND LANDFALL IFLAG USA_AGENCY USA_ATCF_ID USA_LAT USA_LON USA_RECORD USA_STATUS USA_WIND USA_PRES USA_SSHS USA_R34_NE USA_R34_SE USA_R34_SW USA_R34_NW USA_R50_NE USA_R50_SE USA_R50_SW USA_R50_NW USA_R64_NE USA_R64_SE USA_R64_SW USA_R64_NW USA_POCI USA_ROCI USA_RMW USA_EYE TOKYO_LAT TOKYO_LON TOKYO_GRADE TOKYO_WIND TOKYO_PRES TOKYO_R50_DIR TOKYO_R50_LONG TOKYO_R50_SHORT TOKYO_R30_DIR TOKYO_R30_LONG TOKYO_R30_SHORT TOKYO_LAND CMA_LAT CMA_LON CMA_CAT CMA_WIND CMA_PRES HKO_LAT HKO_LON HKO_CAT HKO_WIND HKO_PRES NEWDELHI_LAT NEWDELHI_LON NEWDELHI_GRADE NEWDELHI_WIND NEWDELHI_PRES NEWDELHI_CI NEWDELHI_DP NEWDELHI_POCI REUNION_LAT REUNION_LON REUNION_TYPE REUNION_WIND REUNION_PRES REUNION_TNUM REUNION_CI REUNION_RMW REUNION_R34_NE REUNION_R34_SE REUNION_R34_SW REUNION_R34_NW REUNION_R50_NE REUNION_R50_SE REUNION_R50_SW REUNION_R50_NW REUNION_R64_NE REUNION_R64_SE REUNION_R64_SW REUNION_R64_NW BOM_LAT BOM_LON BOM_TYPE BOM_WIND BOM_PRES BOM_TNUM BOM_CI BOM_RMW BOM_R34_NE BOM_R34_SE BOM_R34_SW BOM_R34_NW BOM_R50_NE BOM_R50_SE BOM_R50_SW BOM_R50_NW BOM_R64_NE BOM_R64_SE BOM_R64_SW BOM_R64_NW BOM_ROCI BOM_POCI BOM_EYE BOM_POS_METHOD BOM_PRES_METHOD NADI_LAT NADI_LON NADI_CAT NADI_WIND NADI_PRES WELLINGTON_LAT WELLINGTON_LON WELLINGTON_WIND WELLINGTON_PRES DS824_LAT DS824_LON DS824_STAGE DS824_WIND DS824_PRES TD9636_LAT TD9636_LON TD9636_STAGE TD9636_WIND TD9636_PRES TD9635_LAT TD9635_LON TD9635_WIND TD9635_PRES TD9635_ROCI NEUMANN_LAT NEUMANN_LON NEUMANN_CLASS NEUMANN_WIND NEUMANN_PRES MLC_LAT MLC_LON MLC_CLASS MLC_WIND MLC_PRES USA_GUST BOM_GUST BOM_GUST_PER REUNION_GUST REUNION_GUST_PER USA_SEAHGT USA_SEARAD_NE USA_SEARAD_SE USA_SEARAD_SW USA_SEARAD_NW STORM_SPEED STORM_DIR
1974198N14244 1974 62 EP MM GRETCHEN 1974-07-17 00:00:00 TS 14.3000 -115.700 30 hurdat_epa main 1133 1082 O________OO___ hurdat_epa EP071974 14.3000 -115.700 TD 30 -1 14.3000 -115.700 TC 30 14.3000 -115.700 1 30 11 56
1974198N14244 1974 62 EP MM GRETCHEN 1974-07-17 03:00:00 TS 14.5967 -115.244 main 1077 1027 P________PP___ EP071974 14.5902 -115.243 TD 30 -1 14.5902 -115.243 TC 30 14.6227 -115.251 1 30 11 55
1974198N14244 1974 62 EP MM GRETCHEN 1974-07-17 06:00:00 TS 14.9092 -114.802 30 hurdat_epa main 1027 977 O________OP___ hurdat_epa EP071974 14.9000 -114.800 TD 30 -1 14.9000 -114.800 TC 30 14.9459 -114.811 1 30 11 52
1974198N14244 1974 62 EP MM GRETCHEN 1974-07-17 09:00:00 TS 15.2482 -114.386 main 977 918 P________PP___ EP071974 15.2424 -114.385 TD 30 -1 15.2424 -114.385 TC 30 15.2712 -114.391 1 30 10 48
1974198N14244 1974 62 EP MM GRETCHEN 1974-07-17 12:00:00 TS 15.6000 -114.000 30 hurdat_epa main 918 873 O________OO___ hurdat_epa EP071974 15.6000 -114.000 TD 30 -1 15.6000 -114.000 TC 30 15.6000 -114.000 1 30 10 46
1974198N14244 1974 62 EP MM GRETCHEN 1974-07-17 15:00:00 TS 15.9468 -113.637 main 869 815 P________PP___ EP071974 15.9499 -113.635 TD 30 -1 15.9499 -113.635 TC 30 15.9343 -113.646 1 30 10 44
1974198N14244 1974 62 EP MM GRETCHEN 1974-07-17 18:00:00 TS 16.2954 -113.304 30 hurdat_epa main 815 771 O________OP___ hurdat_epa EP071974 16.3000 -113.300 TD 30 -1 16.3000 -113.300 TC 30 16.2770 -113.319 1 30 9 41
1974198N14244 1974 62 EP MM GRETCHEN 1974-07-17 21:00:00 TS 16.6402 -113.001 main 771 717 P________PP___ EP071974 16.6424 -113.000 TD 30 -1 16.6424 -113.000 TC 30 16.6312 -113.008 1 30 9 39
1974198N14244 1974 62 EP MM GRETCHEN 1974-07-18 00:00:00 TS 17.0000 -112.700 30 hurdat_epa main 717 664 O________OO___ hurdat_epa EP071974 17.0000 -112.700 TD 30 -1 17.0000 -112.700 TC 30 17.0000 -112.700 1 30 10 41
1974198N14244 1974 62 EP MM GRETCHEN 1974-07-18 03:00:00 TS 17.3742 -112.335 main 660 617 P________PP___ EP071974 17.3925 -112.350 TD 30 -1 17.3925 -112.350 TC 30 17.3008 -112.275 1 31 10 42
1974198N14244 1974 62 EP MM GRETCHEN 1974-07-18 06:00:00 TS 17.7656 -111.973 30 hurdat_epa main 607 565 O________OP___ hurdat_epa EP071974 17.8000 -112.000 TD 30 -1 17.8000 -112.000 TC 30 17.6281 -111.866 1 32 10 43
1974198N14244 1974 62 EP MM GRETCHEN 1974-07-18 09:00:00 TS 18.0903 -111.639 main 562 502 P________PP___ EP071974 18.1026 -111.662 TD 30 -1 18.1026 -111.662 TC 30 18.0413 -111.548 1 33 10 33
1974198N14244 1974 62 EP MM GRETCHEN 1974-07-18 12:00:00 TS 18.6000 -111.400 30 hurdat_epa main 502 400 O________OO___ hurdat_epa EP071974 18.6000 -111.400 TD 30 -1 18.6000 -111.400 TC 30 18.6000 -111.400 2 35 15 16
1974198N14244 1974 62 EP MM GRETCHEN 1974-07-18 15:00:00 TS 19.5703 -111.202 main 389 290 P________PP___ EP071974 19.5896 -111.152 TD 40 0 19.5896 -111.152 TC 40 19.4934 -111.401 2 47 21 3
1974198N14244 1974 62 EP MM GRETCHEN 1974-07-18 18:00:00 TS 20.6627 -111.278 50 hurdat_epa main 280 227 O________OP___ hurdat_epa EP071974 20.7000 -111.200 TS 50 0 20.7000 -111.200 TC 50 20.5135 -111.592 2 60 21 345
1974198N14244 1974 62 EP MM GRETCHEN 1974-07-18 21:00:00 TS 21.5963 -111.784 main 235 230 P________PP___ EP071974 21.6198 -111.733 TS 67 1 21.6198 -111.733 TC 67 21.5020 -111.987 2 72 21 323
1974198N14244 1974 62 EP MM GRETCHEN 1974-07-19 00:00:00 TS 22.3000 -112.600 85 hurdat_epa main 252 250 O________OO___ hurdat_epa EP071974 22.3000 -112.600 HU 85 2 22.3000 -112.600 TC 85 22.3000 -112.600 4 85 19 303
1974198N14244 1974 62 EP MM GRETCHEN 1974-07-19 03:00:00 TS 22.6688 -113.537 main 265 265 P________PP___ EP071974 22.6549 -113.549 HU 77 1 22.6549 -113.549 TC 77 22.7243 -113.490 4 81 19 286
1974198N14244 1974 62 EP MM GRETCHEN 1974-07-19 06:00:00 TS 22.8271 -114.594 70 hurdat_epa main 330 330 O________OP___ hurdat_epa EP071974 22.8000 -114.600 HU 70 1 22.8000 -114.600 TC 70 22.9353 -114.569 4 77 20 278
1974198N14244 1974 62 EP MM GRETCHEN 1974-07-19 09:00:00 TS 22.9509 -115.700 main 408 408 P________PP___ EP071974 22.9380 -115.703 HU 70 1 22.9380 -115.703 TC 70 23.0026 -115.688 4 73 19 275
1974198N14244 1974 62 EP MM GRETCHEN 1974-07-19 12:00:00 TS 23.0000 -116.700 70 hurdat_epa main 499 499 O________OO___ hurdat_epa EP071974 23.0000 -116.700 HU 70 1 23.0000 -116.700 TC 70 23.0000 -116.700 4 70 16 272
1974198N14244 1974 62 EP MM GRETCHEN 1974-07-19 15:00:00 TS 23.0045 -117.438 main 557 557 P________PP___ EP071974 23.0141 -117.433 HU 55 0 23.0141 -117.433 TC 55 22.9664 -117.460 4 62 12 269
1974198N14244 1974 62 EP MM GRETCHEN 1974-07-19 18:00:00 TS 22.9799 -118.017 40 hurdat_epa main 592 592 O________OP___ hurdat_epa EP071974 23.0000 -118.000 TS 40 0 23.0000 -118.000 TC 40 22.8995 -118.086 4 55 10 265
1974198N14244 1974 62 EP MM GRETCHEN 1974-07-19 21:00:00 TS 22.9225 -118.567 main 639 639 P________PP___ EP071974 22.9324 -118.560 TS 40 0 22.9324 -118.560 TC 40 22.8830 -118.594 4 47 9 271
1974198N14244 1974 62 EP MM GRETCHEN 1974-07-20 00:00:00 TS 23.0000 -119.000 40 hurdat_epa main 658 645 O________OO___ hurdat_epa EP071974 23.0000 -119.000 TS 40 0 23.0000 -119.000 TC 40 23.0000 -119.000 2 40 8 305
1974198N14244 1974 62 EP MM GRETCHEN 1974-07-20 03:00:00 TS 23.3809 -119.290 main 645 618 P________PP___ EP071974 23.3672 -119.287 TS 37 0 23.3672 -119.287 TC 37 23.4357 -119.302 2 37 10 333
1974198N14244 1974 62 EP MM GRETCHEN 1974-07-20 06:00:00 TS 23.9195 -119.504 35 hurdat_epa main 618 589 O________OP___ hurdat_epa EP071974 23.9000 -119.500 TS 35 0 23.9000 -119.500 TC 35 23.9975 -119.521 2 35 12 341
1974198N14244 1974 62 EP MM GRETCHEN 1974-07-20 09:00:00 TS 24.5139 -119.716 main 589 577 P________PP___ EP071974 24.5022 -119.712 TS 32 -1 24.5022 -119.712 TC 32 24.5608 -119.730 2 32 12 337
1974198N14244 1974 62 EP MM GRETCHEN 1974-07-20 12:00:00 TS 25.0000 -120.000 30 hurdat_epa main 581 581 O________OO___ hurdat_epa EP071974 25.0000 -120.000 TD 30 -1 25.0000 -120.000 TC 30 25.0000 -120.000 1 30 10 316
1974198N14244 1974 62 EP MM GRETCHEN 1974-07-20 15:00:00 TS 25.2022 -120.447 main 605 605 P________PP___ EP071974 25.1976 -120.463 TD 30 -1 25.1976 -120.463 TC 30 25.2207 -120.386 1 28 9 283
1974198N14244 1974 62 EP MM GRETCHEN 1974-07-20 18:00:00 TS 25.2106 -120.974 30 hurdat_epa main 658 658 O________OP___ hurdat_epa EP071974 25.2000 -121.000 TD 30 -1 25.2000 -121.000 TC 30 25.2532 -120.870 1 27 10 265
1974198N14244 1974 62 EP MM GRETCHEN 1974-07-20 21:00:00 TS 25.1259 -121.494 main 708 708 P________PP___ EP071974 25.1177 -121.513 TD 27 -1 25.1177 -121.513 TC 27 25.1589 -121.420 1 26 10 257
1974198N14244 1974 62 EP MM GRETCHEN 1974-07-21 00:00:00 TS 25.0000 -122.000 25 hurdat_epa main 759 O________OO___ hurdat_epa EP071974 25.0000 -122.000 TD 25 -1 25.0000 -122.000 TC 25 25.0000 -122.000 1 25 10 255

IBTrACS Databaseについて

本データベースは、米国NOAAが公開する1842年以降の世界の熱帯低気圧のベストトラックデータアーカイブInternational Best Track Archive for Climate Stewardship (IBTrACS)を、ウェブで閲覧しやすい形式に変換したものです。

最終更新日:2021-11-26